createdAt,value
2018-03-19T00:01:18.071Z,20.85
2018-03-19T00:03:44.390Z,19.70
2018-03-19T00:06:11.509Z,20.85
2018-03-19T00:08:38.667Z,22.25
2018-03-19T00:11:06.091Z,22.08
2018-03-19T00:13:33.168Z,23.73
2018-03-19T00:15:59.556Z,20.77
2018-03-19T00:18:26.040Z,18.50
2018-03-19T00:20:53.100Z,21.70
2018-03-19T00:23:19.455Z,21.65
2018-03-19T00:25:45.834Z,18.67
2018-03-19T00:28:12.140Z,20.12
2018-03-19T00:30:38.496Z,18.10
2018-03-19T00:33:05.531Z,20.52
2018-03-19T00:35:31.897Z,18.87
2018-03-19T00:37:58.223Z,19.83
2018-03-19T00:40:24.601Z,20.88
2018-03-19T00:42:51.694Z,17.98
2018-03-19T00:45:21.240Z,20.70
2018-03-19T00:47:48.314Z,14.60
2018-03-19T00:50:14.648Z,18.12
2018-03-19T00:52:41.015Z,20.75
2018-03-19T00:55:08.108Z,16.52
2018-03-19T00:57:35.446Z,15.48
2018-03-19T01:00:01.804Z,19.25
2018-03-19T01:02:28.886Z,18.73
2018-03-19T01:04:55.277Z,21.27
2018-03-19T01:07:21.593Z,18.02
2018-03-19T01:09:47.937Z,20.15
2018-03-19T01:12:14.403Z,18.58
2018-03-19T01:14:41.483Z,20.83
2018-03-19T01:17:07.848Z,19.52
2018-03-19T01:19:35.188Z,17.55
2018-03-19T01:22:01.503Z,19.23
2018-03-19T01:24:27.820Z,19.20
2018-03-19T01:26:54.920Z,19.48
2018-03-19T01:29:21.954Z,14.25
2018-03-19T01:31:49.012Z,18.58
2018-03-19T01:34:15.428Z,19.35
2018-03-19T01:36:41.748Z,14.57
2018-03-19T01:39:08.096Z,18.50
2018-03-19T01:41:35.509Z,18.27
2018-03-19T01:44:02.600Z,17.75
2018-03-19T01:46:28.921Z,13.65
2018-03-19T01:48:55.287Z,18.48
2018-03-19T01:51:21.657Z,14.52
2018-03-19T01:53:48.726Z,17.65
2018-03-19T01:56:15.161Z,15.88
2018-03-19T01:58:41.487Z,17.75
2018-03-19T02:01:07.896Z,16.50
2018-03-19T02:03:35.947Z,13.43
2018-03-19T02:06:03.051Z,12.25
2018-03-19T02:08:29.415Z,14.35
2018-03-19T02:10:56.491Z,19.25
2018-03-19T02:13:22.820Z,16.10
2018-03-19T02:15:49.184Z,19.27
2018-03-19T02:18:16.230Z,15.77
2018-03-19T02:20:43.301Z,19.62
2018-03-19T02:23:09.745Z,21.12
2018-03-19T02:25:36.783Z,21.55
2018-03-19T02:28:04.007Z,20.08
2018-03-19T02:30:30.375Z,16.83
2018-03-19T02:32:57.426Z,16.17
2018-03-19T02:35:23.763Z,16.87
2018-03-19T02:37:50.289Z,17.62
2018-03-19T02:40:17.361Z,16.87
2018-03-19T02:42:44.420Z,17.05
2018-03-19T02:45:11.572Z,15.77
2018-03-19T02:47:37.884Z,17.02
2018-03-19T02:50:04.223Z,18.17
2018-03-19T02:52:32.068Z,16.45
2018-03-19T02:54:59.148Z,12.77
2018-03-19T02:57:25.478Z,16.17
2018-03-19T02:59:52.594Z,16.42
2018-03-19T03:02:18.989Z,16.85
2018-03-19T03:04:46.814Z,15.02
2018-03-19T03:07:13.187Z,14.45
2018-03-19T03:09:39.528Z,16.20
2018-03-19T03:12:06.173Z,12.60
2018-03-19T03:14:32.507Z,15.75
2018-03-19T03:16:59.583Z,16.27
2018-03-19T03:19:25.889Z,16.70
2018-03-19T03:21:52.209Z,15.98
2018-03-19T03:24:18.542Z,13.80
2018-03-19T03:26:45.019Z,11.23
2018-03-19T03:29:12.766Z,17.33
2018-03-19T03:31:39.093Z,14.00
2018-03-19T03:34:06.780Z,12.80
2018-03-19T03:36:33.839Z,16.65
2018-03-19T03:39:00.578Z,17.30
2018-03-19T03:41:27.049Z,18.45
2018-03-19T03:43:54.104Z,18.08
2018-03-19T03:46:20.434Z,16.40
2018-03-19T03:48:47.931Z,16.42
2018-03-19T03:51:14.315Z,16.83
2018-03-19T03:53:40.683Z,16.48
2018-03-19T03:56:07.026Z,14.13
2018-03-19T03:58:33.325Z,15.60
2018-03-19T04:00:59.703Z,15.32
2018-03-19T04:03:26.025Z,14.57
2018-03-19T04:05:52.751Z,18.25
2018-03-19T04:08:19.310Z,16.25
2018-03-19T04:10:45.650Z,17.23
2018-03-19T04:13:12.700Z,17.27
2018-03-19T04:15:39.049Z,14.32
2018-03-19T04:18:06.303Z,14.68
2018-03-19T04:20:32.622Z,12.77
2018-03-19T04:22:59.708Z,13.10
2018-03-19T04:25:26.079Z,20.23
2018-03-19T04:27:52.393Z,18.98
2018-03-19T04:30:18.736Z,15.15
2018-03-19T04:32:45.099Z,15.43
2018-03-19T04:35:12.272Z,18.65
2018-03-19T04:37:39.345Z,16.45
2018-03-19T04:40:06.127Z,17.92
2018-03-19T04:42:32.499Z,16.55
2018-03-19T04:44:58.859Z,17.52
2018-03-19T04:47:25.215Z,17.77
2018-03-19T04:49:52.324Z,15.65
2018-03-19T04:52:18.671Z,16.05
2018-03-19T04:54:44.985Z,17.62
2018-03-19T04:57:11.330Z,13.35
2018-03-19T04:59:37.682Z,16.95
2018-03-19T05:02:05.383Z,19.23
2018-03-19T05:04:31.718Z,16.12
2018-03-19T05:06:58.072Z,17.52
2018-03-19T05:09:24.515Z,16.80
2018-03-19T05:11:50.851Z,18.98
2018-03-19T05:14:17.907Z,18.40
2018-03-19T05:16:45.022Z,19.75
2018-03-19T05:19:11.436Z,15.15
2018-03-19T05:21:37.765Z,17.85
2018-03-19T05:24:05.632Z,16.45
2018-03-19T05:26:32.925Z,14.23
2018-03-19T05:29:00.033Z,17.23
2018-03-19T05:31:28.174Z,17.90
2018-03-19T05:33:55.266Z,14.98
2018-03-19T05:36:22.334Z,17.42
2018-03-19T05:38:50.983Z,16.83
2018-03-19T05:41:18.070Z,16.45
2018-03-19T05:43:44.478Z,14.18
2018-03-19T05:46:10.889Z,18.77
2018-03-19T05:48:37.327Z,17.37
2018-03-19T05:51:03.760Z,19.40
2018-03-19T05:53:30.910Z,16.83
2018-03-19T05:55:57.315Z,17.92
2018-03-19T05:58:24.585Z,16.15
2018-03-19T06:00:51.690Z,15.93
2018-03-19T06:03:18.889Z,18.23
2018-03-19T06:05:45.346Z,17.62
2018-03-19T06:08:12.485Z,20.37
2018-03-19T06:10:38.958Z,15.90
2018-03-19T06:13:06.549Z,17.95
2018-03-19T06:15:33.027Z,14.48
2018-03-19T06:17:59.466Z,19.12
2018-03-19T06:20:25.933Z,13.57
2018-03-19T06:22:54.108Z,16.02
2018-03-19T06:25:21.290Z,16.45
2018-03-19T06:27:47.774Z,18.90
2018-03-19T06:30:14.873Z,18.65
2018-03-19T06:32:41.480Z,15.30
2018-03-19T06:35:07.948Z,17.95
2018-03-19T06:37:34.371Z,17.20
2018-03-19T06:40:01.551Z,16.73
2018-03-19T06:42:28.026Z,21.23
2018-03-19T06:44:54.432Z,18.80
2018-03-19T06:47:22.031Z,19.17
2018-03-19T06:49:49.572Z,14.93
2018-03-19T06:52:15.990Z,15.38
2018-03-19T06:54:42.446Z,15.55
2018-03-19T06:57:10.582Z,20.73
2018-03-19T06:59:38.785Z,17.90
2018-03-19T07:02:06.377Z,18.50
2018-03-19T07:04:32.738Z,18.42
2018-03-19T07:06:59.147Z,19.33
2018-03-19T07:09:25.655Z,18.73
2018-03-19T07:11:52.950Z,21.10
2018-03-19T07:14:19.494Z,16.17
2018-03-19T07:16:45.994Z,17.58
2018-03-19T07:19:12.420Z,17.70
2018-03-19T07:21:39.879Z,19.37
2018-03-19T07:24:07.065Z,20.10
2018-03-19T07:26:33.589Z,16.25
2018-03-19T07:29:00.817Z,20.20
2018-03-19T07:31:32.105Z,19.20
2018-03-19T07:33:58.991Z,20.42
2018-03-19T07:36:25.453Z,19.23
2018-03-19T07:38:51.885Z,19.12
2018-03-19T07:41:20.300Z,19.90
2018-03-19T07:46:39.809Z,19.70
2018-03-19T07:49:07.312Z,19.33
2018-03-19T07:51:33.947Z,21.33
2018-03-19T07:54:01.217Z,16.02
2018-03-19T07:56:28.438Z,20.10
2018-03-19T07:58:54.851Z,18.27
2018-03-19T08:01:21.274Z,20.05
2018-03-19T08:03:47.722Z,19.87
2018-03-19T08:06:14.205Z,18.50
2018-03-19T08:08:40.650Z,21.02
2018-03-19T08:11:07.091Z,17.60
2018-03-19T08:13:33.672Z,18.87
2018-03-19T08:16:00.595Z,18.90
2018-03-19T08:18:27.202Z,21.17
2018-03-19T08:20:53.665Z,23.02
2018-03-19T08:23:20.824Z,21.50
2018-03-19T08:25:47.318Z,18.70
2018-03-19T08:28:14.574Z,20.30
2018-03-19T08:30:41.776Z,19.87
2018-03-19T08:33:08.997Z,22.00
2018-03-19T08:35:36.986Z,26.73
2018-03-19T08:38:03.386Z,19.87
2018-03-19T08:40:29.905Z,20.50
2018-03-19T08:42:56.432Z,19.75
2018-03-19T08:45:22.974Z,18.80
2018-03-19T08:47:49.494Z,19.62
2018-03-19T08:50:19.956Z,19.80
2018-03-19T08:52:47.137Z,20.00
2018-03-19T08:55:13.570Z,20.12
2018-03-19T08:57:40.262Z,19.30
2018-03-19T09:00:06.706Z,18.80
2018-03-19T09:02:33.928Z,20.95
2018-03-19T09:05:01.330Z,19.35
2018-03-19T09:07:27.772Z,22.58
2018-03-19T09:09:54.912Z,19.60
2018-03-19T09:12:22.171Z,17.10
2018-03-19T09:14:48.717Z,19.87
2018-03-19T09:17:15.136Z,20.17
2018-03-19T09:19:41.709Z,20.10
2018-03-19T09:22:08.143Z,19.02
2018-03-19T09:24:35.333Z,20.37
2018-03-19T09:27:02.565Z,21.65
2018-03-19T09:29:29.894Z,16.20
2018-03-19T09:31:56.388Z,20.52
2018-03-19T09:34:22.884Z,20.58
2018-03-19T09:36:50.043Z,15.02
2018-03-19T09:39:16.485Z,17.60
2018-03-19T09:41:45.121Z,21.23
2018-03-19T09:44:11.541Z,22.60
2018-03-19T09:46:39.987Z,24.23
2018-03-19T09:49:06.378Z,19.95
2018-03-19T09:51:33.498Z,22.62
2018-03-19T09:53:59.963Z,18.02
2018-03-19T09:56:26.378Z,20.12
2018-03-19T09:58:54.583Z,19.95
2018-03-19T10:01:21.888Z,16.90
2018-03-19T10:03:48.331Z,22.67
2018-03-19T10:06:15.778Z,21.12
2018-03-19T10:08:44.192Z,21.08
2018-03-19T10:11:10.739Z,20.20
2018-03-19T10:13:37.172Z,17.25
2018-03-19T10:16:03.586Z,18.37
2018-03-19T10:18:30.048Z,19.50
2018-03-19T10:20:56.562Z,21.15
2018-03-19T10:23:23.084Z,20.90
2018-03-19T10:25:49.488Z,22.33
2018-03-19T10:28:16.654Z,18.65
2018-03-19T10:30:44.144Z,20.55
2018-03-19T10:33:11.233Z,19.37
2018-03-19T10:35:48.786Z,20.80
2018-03-19T10:38:15.185Z,20.88
2018-03-19T10:40:41.669Z,22.33
2018-03-19T10:43:08.115Z,19.52
2018-03-19T10:45:34.522Z,22.67
2018-03-19T10:48:00.911Z,19.70
2018-03-19T10:50:28.179Z,19.48
2018-03-19T10:52:55.571Z,23.05
2018-03-19T10:55:22.163Z,18.90
2018-03-19T10:57:49.437Z,24.45
2018-03-19T11:00:16.683Z,25.52
2018-03-19T11:02:50.203Z,21.50
2018-03-19T11:05:23.734Z,21.90
2018-03-19T11:07:57.257Z,23.62
2018-03-19T11:10:30.607Z,23.15
2018-03-19T11:12:57.018Z,23.62
2018-03-19T11:15:24.288Z,24.80
2018-03-19T11:17:50.771Z,21.02
2018-03-19T11:20:17.235Z,21.87
2018-03-19T11:22:44.332Z,21.90
2018-03-19T11:25:11.796Z,24.33
2018-03-19T11:27:39.027Z,25.95
2018-03-19T11:30:06.221Z,25.80
2018-03-19T11:32:32.745Z,26.02
2018-03-19T11:34:59.177Z,23.25
2018-03-19T11:37:25.578Z,25.42
2018-03-19T11:39:53.033Z,22.45
2018-03-19T11:42:20.821Z,26.58
2018-03-19T11:44:48.124Z,24.63
2018-03-19T11:47:15.952Z,22.77
2018-03-19T11:49:44.183Z,25.50
2018-03-19T11:52:10.775Z,22.15
2018-03-19T11:54:38.049Z,23.85
2018-03-19T11:57:06.492Z,25.45
2018-03-19T11:59:33.308Z,26.37
2018-03-19T12:01:59.716Z,24.70
2018-03-19T12:04:26.831Z,25.17
2018-03-19T12:06:54.171Z,26.00
2018-03-19T12:09:21.450Z,25.70
2018-03-19T12:11:48.808Z,25.23
2018-03-19T12:14:15.294Z,26.27
2018-03-19T12:16:41.703Z,24.55
2018-03-19T12:19:08.202Z,28.35
2018-03-19T12:24:38.000Z,26.35
2018-03-19T12:27:04.505Z,25.35
2018-03-19T12:29:30.922Z,25.23
2018-03-19T12:31:57.376Z,24.20
2018-03-19T12:34:23.793Z,27.45
2018-03-19T12:36:50.347Z,27.77
2018-03-19T12:39:17.516Z,24.40
2018-03-19T12:41:44.651Z,26.73
2018-03-19T12:44:11.097Z,27.95
2018-03-19T12:46:37.555Z,27.25
2018-03-19T12:49:04.765Z,27.62
2018-03-19T12:51:31.222Z,24.98
2018-03-19T12:53:57.656Z,27.33
2018-03-19T12:56:25.048Z,25.73
2018-03-19T12:58:51.520Z,26.25
2018-03-19T13:01:19.110Z,26.05
2018-03-19T13:03:47.665Z,26.20
2018-03-19T13:06:14.323Z,27.02
2018-03-19T13:08:40.833Z,25.90
2018-03-19T13:11:07.951Z,26.42
2018-03-19T13:13:35.467Z,25.15
2018-03-19T13:16:02.035Z,24.98
2018-03-19T13:18:29.498Z,25.65
2018-03-19T13:20:58.113Z,21.58
2018-03-19T13:23:24.717Z,27.23
2018-03-19T13:25:51.239Z,25.17
2018-03-19T13:28:17.819Z,25.85
2018-03-19T13:30:44.328Z,25.65
2018-03-19T13:33:11.129Z,25.58
2018-03-19T13:35:37.689Z,26.15
2018-03-19T13:38:05.125Z,25.52
2018-03-19T13:40:31.659Z,26.58
2018-03-19T13:42:58.192Z,27.23
2018-03-19T13:45:27.530Z,25.15
2018-03-19T13:47:54.063Z,26.00
2018-03-19T13:50:20.721Z,23.12
2018-03-19T13:52:48.376Z,25.02
2018-03-19T13:55:15.070Z,24.00
2018-03-19T13:57:41.616Z,29.50
2018-03-19T14:00:09.039Z,26.80
2018-03-19T14:02:35.618Z,27.27
2018-03-19T14:05:03.473Z,26.65
2018-03-19T14:07:30.073Z,28.62
2018-03-19T14:09:56.728Z,26.37
2018-03-19T14:12:23.700Z,27.52
2018-03-19T14:14:50.962Z,28.23
2018-03-19T14:17:19.205Z,27.73
2018-03-19T14:19:45.788Z,28.05
2018-03-19T14:22:12.266Z,29.12
2018-03-19T14:24:43.742Z,26.95
2018-03-19T14:27:11.379Z,29.10
2018-03-19T14:29:37.978Z,28.85
2018-03-19T14:32:04.983Z,27.08
2018-03-19T14:34:32.544Z,27.67
2018-03-19T14:36:59.041Z,27.27
2018-03-19T14:39:25.510Z,29.33
2018-03-19T14:41:52.149Z,28.25
2018-03-19T14:44:18.891Z,26.75
2018-03-19T14:46:46.251Z,27.92
2018-03-19T14:49:12.944Z,27.45
2018-03-19T14:51:39.598Z,27.17
2018-03-19T14:54:06.959Z,27.67
2018-03-19T14:56:33.509Z,27.50
2018-03-19T14:58:59.972Z,27.55
2018-03-19T15:01:26.765Z,28.27
2018-03-19T15:03:55.580Z,26.90
2018-03-19T15:06:22.232Z,27.13
2018-03-19T15:08:48.726Z,27.52
2018-03-19T15:11:16.072Z,28.95
2018-03-19T15:13:42.571Z,27.23
2018-03-19T15:16:09.173Z,24.02
2018-03-19T15:18:35.763Z,27.62
2018-03-19T15:21:02.777Z,29.35
2018-03-19T15:23:29.282Z,29.05
2018-03-19T15:25:55.853Z,27.83
2018-03-19T15:28:22.290Z,27.75
2018-03-19T15:30:48.748Z,29.02
2018-03-19T15:33:17.704Z,28.23
2018-03-19T15:35:44.195Z,29.37
2018-03-19T15:38:10.674Z,28.80
2018-03-19T15:40:40.314Z,29.87
2018-03-19T15:43:07.810Z,30.33
2018-03-19T15:45:34.259Z,29.37
2018-03-19T15:48:00.730Z,26.10
2018-03-19T15:50:28.827Z,30.80
2018-03-19T15:52:56.319Z,26.30
2018-03-19T15:55:22.824Z,28.62
2018-03-19T15:57:49.256Z,27.45
2018-03-19T16:00:15.742Z,28.48
2018-03-19T16:02:42.911Z,28.85
2018-03-19T16:05:10.220Z,28.42
2018-03-19T16:07:36.883Z,31.08
2018-03-19T16:10:03.413Z,27.77
2018-03-19T16:12:29.878Z,30.25
2018-03-19T16:14:56.278Z,30.85
2018-03-19T16:17:22.759Z,29.37
2018-03-19T16:19:49.265Z,30.20
2018-03-19T16:22:15.754Z,30.37
2018-03-19T16:24:42.100Z,29.92
2018-03-19T16:27:10.115Z,31.00
2018-03-19T16:29:36.646Z,27.10
2018-03-19T16:32:03.095Z,31.33
2018-03-19T16:34:29.520Z,31.73
2018-03-19T16:36:55.975Z,30.55
2018-03-19T16:39:22.415Z,30.37
2018-03-19T16:41:48.852Z,29.70
2018-03-19T16:44:15.343Z,31.02
2018-03-19T16:46:41.748Z,31.35
2018-03-19T16:49:10.392Z,27.98
2018-03-19T16:51:37.865Z,28.17
2018-03-19T16:54:04.263Z,29.12
2018-03-19T16:56:30.752Z,30.90
2018-03-19T16:58:58.224Z,31.77
2018-03-19T17:01:24.782Z,27.85
2018-03-19T17:03:52.205Z,29.70
2018-03-19T17:06:18.570Z,32.00
2018-03-19T17:08:45.030Z,30.15
2018-03-19T17:11:11.557Z,32.80
2018-03-19T17:13:39.391Z,30.08
2018-03-19T17:16:05.834Z,30.83
2018-03-19T17:18:32.302Z,28.20
2018-03-19T17:20:58.808Z,32.60
2018-03-19T17:23:26.257Z,33.17
2018-03-19T17:25:53.734Z,34.55
2018-03-19T17:28:20.191Z,35.38
2018-03-19T17:30:46.603Z,33.13
2018-03-19T17:33:13.137Z,33.17
2018-03-19T17:35:41.450Z,30.33
2018-03-19T17:38:09.321Z,35.30
2018-03-19T17:40:35.780Z,31.55
2018-03-19T17:43:03.042Z,29.55
2018-03-19T17:45:30.271Z,28.85
2018-03-19T17:47:56.845Z,29.70
2018-03-19T17:50:24.412Z,32.35
2018-03-19T17:52:50.858Z,34.10
2018-03-19T17:55:17.370Z,36.22
2018-03-19T17:57:44.016Z,32.83
2018-03-19T18:00:11.277Z,30.35
2018-03-19T18:02:39.621Z,31.37
2018-03-19T18:05:06.361Z,33.47
2018-03-19T18:07:34.964Z,32.55
2018-03-19T18:10:01.578Z,31.08
2018-03-19T18:12:30.234Z,28.35
2018-03-19T18:14:56.625Z,32.38
2018-03-19T18:17:23.116Z,30.02
2018-03-19T18:19:51.230Z,30.40
2018-03-19T18:22:17.765Z,31.75
2018-03-19T18:24:44.250Z,30.30
2018-03-19T18:27:10.786Z,31.00
2018-03-19T18:29:37.228Z,33.63
2018-03-19T18:32:04.751Z,31.17
2018-03-19T18:34:31.180Z,29.70
2018-03-19T18:36:57.654Z,31.60
2018-03-19T18:39:25.132Z,30.90
2018-03-19T18:41:51.711Z,32.33
2018-03-19T18:44:18.219Z,32.85
2018-03-19T18:46:44.679Z,32.60
2018-03-19T18:49:11.468Z,31.23
2018-03-19T18:51:39.900Z,32.80
2018-03-19T18:54:06.828Z,29.98
2018-03-19T18:56:33.404Z,30.40
2018-03-19T18:59:00.934Z,32.45
2018-03-19T19:01:27.810Z,30.83
2018-03-19T19:03:54.234Z,33.20
2018-03-19T19:06:21.396Z,36.80
2018-03-19T19:08:47.795Z,30.40
2018-03-19T19:11:14.210Z,33.28
2018-03-19T19:13:43.868Z,34.67
2018-03-19T19:16:11.398Z,36.47
2018-03-19T19:18:37.877Z,33.95
2018-03-19T19:21:04.326Z,33.03
2018-03-19T19:23:30.710Z,35.05
2018-03-19T19:25:57.129Z,35.83
2018-03-19T19:28:23.606Z,34.78
2018-03-19T19:30:50.836Z,37.03
2018-03-19T19:33:17.964Z,35.90
2018-03-19T19:35:44.568Z,34.78
2018-03-19T19:38:11.208Z,31.70
2018-03-19T19:40:37.633Z,36.90
2018-03-19T19:43:04.021Z,36.13
2018-03-19T19:45:30.453Z,35.60
2018-03-19T19:47:56.887Z,34.38
2018-03-19T19:50:24.417Z,32.35
2018-03-19T19:52:50.857Z,34.92
2018-03-19T19:55:17.282Z,33.22
2018-03-19T19:57:43.891Z,35.08
2018-03-19T20:00:10.385Z,36.13
2018-03-19T20:02:37.273Z,32.55
2018-03-19T20:05:05.422Z,35.35
2018-03-19T20:07:31.823Z,33.58
2018-03-19T20:09:58.251Z,32.17
2018-03-19T20:12:25.454Z,34.70
2018-03-19T20:14:51.824Z,37.97
2018-03-19T20:17:18.463Z,35.17
2018-03-19T20:19:45.621Z,38.20
2018-03-19T20:22:12.175Z,31.58
2018-03-19T20:25:02.952Z,40.05
2018-03-19T20:27:29.446Z,35.03
2018-03-19T20:30:10.473Z,39.03
2018-03-19T20:32:36.930Z,36.00
2018-03-19T20:35:03.529Z,41.05
2018-03-19T20:37:30.110Z,37.75
2018-03-19T20:39:56.514Z,37.50
2018-03-19T20:42:23.722Z,37.95
2018-03-19T20:44:50.153Z,35.70
2018-03-19T20:47:18.300Z,36.55
2018-03-19T20:49:45.439Z,37.80
2018-03-19T20:52:12.631Z,38.97
2018-03-19T20:54:40.140Z,38.72
2018-03-19T20:57:07.634Z,36.53
2018-03-19T20:59:34.034Z,37.42
2018-03-19T21:04:53.115Z,37.38
2018-03-19T21:07:20.304Z,34.28
2018-03-19T21:09:47.408Z,37.45
2018-03-19T21:12:13.965Z,40.47
2018-03-19T21:14:41.928Z,37.33
2018-03-19T21:17:09.830Z,40.60
2018-03-19T21:19:36.213Z,36.70
2018-03-19T21:22:02.678Z,38.83
2018-03-19T21:24:29.297Z,38.10
2018-03-19T21:26:56.717Z,38.65
2018-03-19T21:29:23.117Z,38.10
2018-03-19T21:31:50.532Z,37.08
2018-03-19T21:34:16.962Z,33.83
2018-03-19T21:36:43.435Z,34.72
2018-03-19T21:39:11.679Z,35.08
2018-03-19T21:41:39.784Z,36.80
2018-03-19T21:44:08.037Z,35.35
2018-03-19T21:46:34.534Z,33.13
2018-03-19T21:49:00.955Z,38.30
2018-03-19T21:51:27.388Z,32.05
2018-03-19T21:53:53.775Z,32.92
2018-03-19T21:56:20.204Z,35.13
2018-03-19T21:58:48.347Z,31.23
2018-03-19T22:01:14.873Z,32.17
2018-03-19T22:03:41.362Z,35.42
2018-03-19T22:06:07.775Z,32.50
2018-03-19T22:08:34.918Z,38.60
2018-03-19T22:11:02.154Z,38.47
2018-03-19T22:13:28.604Z,37.10
2018-03-19T22:15:55.056Z,35.67
2018-03-19T22:18:22.287Z,36.00
2018-03-19T22:20:49.534Z,35.88
2018-03-19T22:23:16.679Z,38.15
2018-03-19T22:25:43.144Z,36.75
2018-03-19T22:28:10.587Z,34.63
2018-03-19T22:30:37.776Z,36.78
2018-03-19T22:33:05.274Z,31.83
2018-03-19T22:35:32.437Z,35.55
2018-03-19T22:37:58.888Z,33.13
2018-03-19T22:40:28.094Z,32.30
2018-03-19T22:42:55.247Z,34.42
2018-03-19T22:45:22.403Z,33.30
2018-03-19T22:47:48.798Z,39.45
2018-03-19T22:50:15.229Z,33.88
2018-03-19T22:52:41.840Z,34.40
2018-03-19T22:55:08.231Z,32.88
2018-03-19T22:57:36.425Z,34.92
2018-03-19T23:00:02.913Z,32.67
2018-03-19T23:02:30.424Z,31.85
2018-03-19T23:08:01.915Z,30.85
2018-03-19T23:10:29.484Z,29.67
2018-03-19T23:12:57.988Z,29.75
2018-03-19T23:15:26.318Z,27.65
2018-03-19T23:17:54.663Z,25.95
2018-03-19T23:20:22.243Z,26.17
2018-03-19T23:22:49.847Z,27.67
2018-03-19T23:25:17.466Z,29.42
2018-03-19T23:27:45.159Z,26.70
2018-03-19T23:30:13.474Z,25.33
2018-03-19T23:32:41.757Z,26.27
2018-03-19T23:35:10.813Z,27.95
2018-03-19T23:37:38.415Z,24.55
2018-03-19T23:40:05.959Z,23.50
2018-03-19T23:42:33.507Z,23.17
2018-03-19T23:45:01.094Z,25.88
2018-03-19T23:47:29.430Z,24.12
2018-03-19T23:49:57.045Z,25.35
2018-03-19T23:52:24.655Z,26.08
2018-03-19T23:54:52.257Z,26.62
2018-03-19T23:57:19.995Z,25.62
2018-03-19T23:59:47.562Z,26.45
